sensor_id;sensor_type;location;lat;lon;timestamp;P1;durP1;ratioP1;P2;durP2;ratioP2
34585;SDS011;20816;50.950;11.108;2023-05-07T00:00:55;20.67;;;11.13;;
34585;SDS011;20816;50.950;11.108;2023-05-07T00:03:21;16.83;;;10.00;;
34585;SDS011;20816;50.950;11.108;2023-05-07T00:05:48;24.40;;;11.23;;
34585;SDS011;20816;50.950;11.108;2023-05-07T00:08:15;24.53;;;12.30;;
34585;SDS011;20816;50.950;11.108;2023-05-07T00:10:41;21.20;;;11.10;;
34585;SDS011;20816;50.950;11.108;2023-05-07T00:13:08;21.07;;;10.90;;
34585;SDS011;20816;50.950;11.108;2023-05-07T00:15:35;25.77;;;13.20;;
34585;SDS011;20816;50.950;11.108;2023-05-07T00:18:01;25.23;;;11.27;;
34585;SDS011;20816;50.950;11.108;2023-05-07T00:20:28;23.40;;;11.97;;
34585;SDS011;20816;50.950;11.108;2023-05-07T00:22:55;22.27;;;10.33;;
34585;SDS011;20816;50.950;11.108;2023-05-07T00:25:21;25.63;;;11.73;;
34585;SDS011;20816;50.950;11.108;2023-05-07T00:27:48;30.20;;;12.30;;
34585;SDS011;20816;50.950;11.108;2023-05-07T00:30:15;23.57;;;10.43;;
34585;SDS011;20816;50.950;11.108;2023-05-07T00:32:42;25.93;;;12.60;;
34585;SDS011;20816;50.950;11.108;2023-05-07T00:35:11;26.63;;;12.13;;
34585;SDS011;20816;50.950;11.108;2023-05-07T00:37:38;29.23;;;11.67;;
34585;SDS011;20816;50.950;11.108;2023-05-07T00:40:06;23.63;;;11.43;;
34585;SDS011;20816;50.950;11.108;2023-05-07T00:42:34;29.33;;;13.33;;
34585;SDS011;20816;50.950;11.108;2023-05-07T00:45:00;25.20;;;11.90;;
34585;SDS011;20816;50.950;11.108;2023-05-07T00:47:27;24.17;;;11.67;;
34585;SDS011;20816;50.950;11.108;2023-05-07T00:49:54;22.30;;;10.33;;
34585;SDS011;20816;50.950;11.108;2023-05-07T00:52:21;26.83;;;11.83;;
34585;SDS011;20816;50.950;11.108;2023-05-07T00:54:50;29.40;;;14.63;;
34585;SDS011;20816;50.950;11.108;2023-05-07T00:57:16;25.40;;;12.67;;
34585;SDS011;20816;50.950;11.108;2023-05-07T00:59:43;28.53;;;11.57;;
34585;SDS011;20816;50.950;11.108;2023-05-07T01:02:10;25.60;;;11.27;;
34585;SDS011;20816;50.950;11.108;2023-05-07T01:04:37;30.33;;;12.53;;
34585;SDS011;20816;50.950;11.108;2023-05-07T01:07:04;30.93;;;12.60;;
34585;SDS011;20816;50.950;11.108;2023-05-07T01:09:31;26.33;;;12.07;;
34585;SDS011;20816;50.950;11.108;2023-05-07T01:11:58;26.63;;;11.97;;
34585;SDS011;20816;50.950;11.108;2023-05-07T01:14:25;26.00;;;13.20;;
34585;SDS011;20816;50.950;11.108;2023-05-07T01:16:53;25.30;;;12.53;;
34585;SDS011;20816;50.950;11.108;2023-05-07T01:19:20;25.67;;;11.63;;
34585;SDS011;20816;50.950;11.108;2023-05-07T01:21:47;27.17;;;11.67;;
34585;SDS011;20816;50.950;11.108;2023-05-07T01:24:15;21.47;;;10.97;;
34585;SDS011;20816;50.950;11.108;2023-05-07T01:26:43;25.57;;;12.83;;
34585;SDS011;20816;50.950;11.108;2023-05-07T01:29:10;23.60;;;10.93;;
34585;SDS011;20816;50.950;11.108;2023-05-07T01:31:38;22.93;;;11.10;;
34585;SDS011;20816;50.950;11.108;2023-05-07T01:34:07;29.63;;;11.40;;
34585;SDS011;20816;50.950;11.108;2023-05-07T01:36:34;30.33;;;10.77;;
34585;SDS011;20816;50.950;11.108;2023-05-07T01:39:05;23.53;;;11.53;;
34585;SDS011;20816;50.950;11.108;2023-05-07T01:41:32;29.03;;;11.50;;
34585;SDS011;20816;50.950;11.108;2023-05-07T01:43:59;26.90;;;11.93;;
34585;SDS011;20816;50.950;11.108;2023-05-07T01:46:27;23.77;;;11.67;;
34585;SDS011;20816;50.950;11.108;2023-05-07T01:48:55;22.57;;;11.27;;
34585;SDS011;20816;50.950;11.108;2023-05-07T01:51:21;22.97;;;10.77;;
34585;SDS011;20816;50.950;11.108;2023-05-07T01:53:49;22.70;;;10.73;;
34585;SDS011;20816;50.950;11.108;2023-05-07T01:56:17;29.13;;;11.57;;
34585;SDS011;20816;50.950;11.108;2023-05-07T01:58:44;19.13;;;10.23;;
34585;SDS011;20816;50.950;11.108;2023-05-07T02:01:13;22.70;;;10.67;;
34585;SDS011;20816;50.950;11.108;2023-05-07T02:03:40;21.00;;;10.63;;
34585;SDS011;20816;50.950;11.108;2023-05-07T02:06:08;27.93;;;11.47;;
34585;SDS011;20816;50.950;11.108;2023-05-07T02:08:34;27.90;;;12.87;;
34585;SDS011;20816;50.950;11.108;2023-05-07T02:11:01;19.50;;;11.33;;
34585;SDS011;20816;50.950;11.108;2023-05-07T02:13:29;21.13;;;10.43;;
34585;SDS011;20816;50.950;11.108;2023-05-07T02:15:57;27.90;;;11.37;;
34585;SDS011;20816;50.950;11.108;2023-05-07T02:18:23;24.50;;;11.33;;
34585;SDS011;20816;50.950;11.108;2023-05-07T02:20:50;23.37;;;11.23;;
34585;SDS011;20816;50.950;11.108;2023-05-07T02:23:17;25.40;;;11.47;;
34585;SDS011;20816;50.950;11.108;2023-05-07T02:25:44;25.73;;;11.20;;
34585;SDS011;20816;50.950;11.108;2023-05-07T02:28:10;26.20;;;11.50;;
34585;SDS011;20816;50.950;11.108;2023-05-07T02:30:38;27.47;;;10.90;;
34585;SDS011;20816;50.950;11.108;2023-05-07T02:33:06;23.87;;;11.17;;
34585;SDS011;20816;50.950;11.108;2023-05-07T02:35:34;24.13;;;11.87;;
34585;SDS011;20816;50.950;11.108;2023-05-07T02:38:01;24.83;;;11.50;;
34585;SDS011;20816;50.950;11.108;2023-05-07T02:40:28;21.77;;;10.00;;
34585;SDS011;20816;50.950;11.108;2023-05-07T02:42:55;25.17;;;12.53;;
34585;SDS011;20816;50.950;11.108;2023-05-07T02:45:21;20.27;;;11.80;;
34585;SDS011;20816;50.950;11.108;2023-05-07T02:47:48;22.77;;;11.93;;
34585;SDS011;20816;50.950;11.108;2023-05-07T02:50:15;23.97;;;10.97;;
34585;SDS011;20816;50.950;11.108;2023-05-07T02:52:41;23.23;;;11.17;;
34585;SDS011;20816;50.950;11.108;2023-05-07T02:55:08;22.33;;;11.87;;
34585;SDS011;20816;50.950;11.108;2023-05-07T02:57:35;29.23;;;11.43;;
34585;SDS011;20816;50.950;11.108;2023-05-07T03:00:09;23.63;;;10.60;;
34585;SDS011;20816;50.950;11.108;2023-05-07T03:02:38;26.50;;;11.00;;
34585;SDS011;20816;50.950;11.108;2023-05-07T03:05:05;25.63;;;10.93;;
34585;SDS011;20816;50.950;11.108;2023-05-07T03:07:33;25.50;;;11.30;;
34585;SDS011;20816;50.950;11.108;2023-05-07T03:10:00;24.37;;;11.13;;
34585;SDS011;20816;50.950;11.108;2023-05-07T03:12:27;18.23;;;10.27;;
34585;SDS011;20816;50.950;11.108;2023-05-07T03:14:53;19.60;;;9.20;;
34585;SDS011;20816;50.950;11.108;2023-05-07T03:17:20;21.03;;;9.70;;
34585;SDS011;20816;50.950;11.108;2023-05-07T03:19:48;20.93;;;9.07;;
34585;SDS011;20816;50.950;11.108;2023-05-07T03:22:14;16.50;;;7.60;;
34585;SDS011;20816;50.950;11.108;2023-05-07T03:24:41;18.73;;;9.80;;
34585;SDS011;20816;50.950;11.108;2023-05-07T03:27:07;19.97;;;9.13;;
34585;SDS011;20816;50.950;11.108;2023-05-07T03:29:34;16.40;;;8.57;;
34585;SDS011;20816;50.950;11.108;2023-05-07T03:32:01;22.83;;;9.33;;
34585;SDS011;20816;50.950;11.108;2023-05-07T03:34:28;19.53;;;8.17;;
34585;SDS011;20816;50.950;11.108;2023-05-07T03:36:54;17.37;;;9.03;;
34585;SDS011;20816;50.950;11.108;2023-05-07T03:39:21;15.23;;;8.57;;
34585;SDS011;20816;50.950;11.108;2023-05-07T03:41:48;18.97;;;8.40;;
34585;SDS011;20816;50.950;11.108;2023-05-07T03:44:14;17.17;;;8.37;;
34585;SDS011;20816;50.950;11.108;2023-05-07T03:46:41;22.97;;;8.47;;
34585;SDS011;20816;50.950;11.108;2023-05-07T03:49:08;18.57;;;8.17;;
34585;SDS011;20816;50.950;11.108;2023-05-07T03:51:34;20.53;;;9.07;;
34585;SDS011;20816;50.950;11.108;2023-05-07T03:54:02;16.73;;;7.93;;
34585;SDS011;20816;50.950;11.108;2023-05-07T03:56:29;33.53;;;7.47;;
34585;SDS011;20816;50.950;11.108;2023-05-07T03:58:55;15.17;;;7.60;;
34585;SDS011;20816;50.950;11.108;2023-05-07T04:01:22;16.77;;;8.37;;
34585;SDS011;20816;50.950;11.108;2023-05-07T04:03:49;21.43;;;10.43;;
34585;SDS011;20816;50.950;11.108;2023-05-07T04:06:16;18.40;;;8.37;;
34585;SDS011;20816;50.950;11.108;2023-05-07T04:08:45;18.73;;;8.67;;
34585;SDS011;20816;50.950;11.108;2023-05-07T04:11:12;17.87;;;8.30;;
34585;SDS011;20816;50.950;11.108;2023-05-07T04:13:39;17.37;;;9.30;;
34585;SDS011;20816;50.950;11.108;2023-05-07T04:16:06;20.50;;;8.93;;
34585;SDS011;20816;50.950;11.108;2023-05-07T04:18:32;16.93;;;8.47;;
34585;SDS011;20816;50.950;11.108;2023-05-07T04:20:59;19.77;;;7.70;;
34585;SDS011;20816;50.950;11.108;2023-05-07T04:23:26;17.70;;;8.70;;
34585;SDS011;20816;50.950;11.108;2023-05-07T04:25:53;17.10;;;8.77;;
34585;SDS011;20816;50.950;11.108;2023-05-07T04:28:20;20.27;;;8.00;;
34585;SDS011;20816;50.950;11.108;2023-05-07T04:30:47;15.67;;;7.87;;
34585;SDS011;20816;50.950;11.108;2023-05-07T04:33:14;16.60;;;7.53;;
34585;SDS011;20816;50.950;11.108;2023-05-07T04:35:43;15.43;;;8.03;;
34585;SDS011;20816;50.950;11.108;2023-05-07T04:38:09;15.10;;;6.53;;
34585;SDS011;20816;50.950;11.108;2023-05-07T04:40:37;12.53;;;7.07;;
34585;SDS011;20816;50.950;11.108;2023-05-07T04:43:05;16.57;;;5.23;;
34585;SDS011;20816;50.950;11.108;2023-05-07T04:45:32;25.80;;;6.33;;
34585;SDS011;20816;50.950;11.108;2023-05-07T04:47:58;12.87;;;5.40;;
34585;SDS011;20816;50.950;11.108;2023-05-07T04:50:25;12.23;;;5.50;;
34585;SDS011;20816;50.950;11.108;2023-05-07T04:52:52;11.47;;;6.80;;
34585;SDS011;20816;50.950;11.108;2023-05-07T04:55:19;10.13;;;4.77;;
34585;SDS011;20816;50.950;11.108;2023-05-07T04:57:46;15.10;;;6.40;;
34585;SDS011;20816;50.950;11.108;2023-05-07T05:00:13;9.80;;;5.87;;
34585;SDS011;20816;50.950;11.108;2023-05-07T05:02:45;9.03;;;5.40;;
34585;SDS011;20816;50.950;11.108;2023-05-07T05:05:12;12.60;;;5.13;;
34585;SDS011;20816;50.950;11.108;2023-05-07T05:07:39;11.57;;;5.87;;
34585;SDS011;20816;50.950;11.108;2023-05-07T05:10:06;12.83;;;6.13;;
34585;SDS011;20816;50.950;11.108;2023-05-07T05:12:32;8.80;;;4.90;;
34585;SDS011;20816;50.950;11.108;2023-05-07T05:14:59;9.03;;;5.67;;
34585;SDS011;20816;50.950;11.108;2023-05-07T05:17:26;9.73;;;5.50;;
34585;SDS011;20816;50.950;11.108;2023-05-07T05:19:53;12.50;;;6.30;;
34585;SDS011;20816;50.950;11.108;2023-05-07T05:22:19;11.63;;;5.93;;
34585;SDS011;20816;50.950;11.108;2023-05-07T05:24:47;11.50;;;6.03;;
34585;SDS011;20816;50.950;11.108;2023-05-07T05:27:13;12.93;;;6.90;;
34585;SDS011;20816;50.950;11.108;2023-05-07T05:29:40;11.93;;;6.93;;
34585;SDS011;20816;50.950;11.108;2023-05-07T05:32:07;14.67;;;8.23;;
34585;SDS011;20816;50.950;11.108;2023-05-07T05:34:33;13.90;;;7.80;;
34585;SDS011;20816;50.950;11.108;2023-05-07T05:37:00;18.03;;;7.20;;
34585;SDS011;20816;50.950;11.108;2023-05-07T05:39:27;14.93;;;8.17;;
34585;SDS011;20816;50.950;11.108;2023-05-07T05:41:53;16.77;;;7.17;;
34585;SDS011;20816;50.950;11.108;2023-05-07T05:44:20;13.43;;;7.67;;
34585;SDS011;20816;50.950;11.108;2023-05-07T05:46:47;17.13;;;8.67;;
34585;SDS011;20816;50.950;11.108;2023-05-07T05:49:16;13.97;;;8.20;;
34585;SDS011;20816;50.950;11.108;2023-05-07T05:51:43;17.70;;;9.67;;
34585;SDS011;20816;50.950;11.108;2023-05-07T05:54:09;17.83;;;8.23;;
34585;SDS011;20816;50.950;11.108;2023-05-07T05:56:36;16.17;;;9.10;;
34585;SDS011;20816;50.950;11.108;2023-05-07T05:59:04;15.30;;;8.00;;
34585;SDS011;20816;50.950;11.108;2023-05-07T06:01:31;15.63;;;7.97;;
34585;SDS011;20816;50.950;11.108;2023-05-07T06:03:58;17.13;;;7.90;;
34585;SDS011;20816;50.950;11.108;2023-05-07T06:06:25;20.13;;;7.80;;
34585;SDS011;20816;50.950;11.108;2023-05-07T06:08:52;13.57;;;7.50;;
34585;SDS011;20816;50.950;11.108;2023-05-07T06:11:19;12.13;;;6.33;;
34585;SDS011;20816;50.950;11.108;2023-05-07T06:13:46;13.90;;;7.30;;
34585;SDS011;20816;50.950;11.108;2023-05-07T06:16:13;16.47;;;7.77;;
34585;SDS011;20816;50.950;11.108;2023-05-07T06:18:40;13.47;;;6.83;;
34585;SDS011;20816;50.950;11.108;2023-05-07T06:21:07;16.43;;;8.27;;
34585;SDS011;20816;50.950;11.108;2023-05-07T06:23:33;15.77;;;8.07;;
34585;SDS011;20816;50.950;11.108;2023-05-07T06:26:00;13.43;;;6.87;;
34585;SDS011;20816;50.950;11.108;2023-05-07T06:28:27;18.83;;;8.20;;
34585;SDS011;20816;50.950;11.108;2023-05-07T06:30:53;13.67;;;6.87;;
34585;SDS011;20816;50.950;11.108;2023-05-07T06:33:20;18.67;;;7.07;;
34585;SDS011;20816;50.950;11.108;2023-05-07T06:35:47;10.83;;;6.17;;
34585;SDS011;20816;50.950;11.108;2023-05-07T06:38:14;15.30;;;6.83;;
34585;SDS011;20816;50.950;11.108;2023-05-07T06:40:41;13.47;;;6.57;;
34585;SDS011;20816;50.950;11.108;2023-05-07T06:43:07;15.13;;;6.00;;
34585;SDS011;20816;50.950;11.108;2023-05-07T06:45:34;15.27;;;6.70;;
34585;SDS011;20816;50.950;11.108;2023-05-07T06:48:01;13.37;;;6.87;;
34585;SDS011;20816;50.950;11.108;2023-05-07T06:50:27;13.33;;;6.30;;
34585;SDS011;20816;50.950;11.108;2023-05-07T06:52:54;12.73;;;6.27;;
34585;SDS011;20816;50.950;11.108;2023-05-07T06:55:20;11.50;;;5.67;;
34585;SDS011;20816;50.950;11.108;2023-05-07T06:57:47;16.97;;;6.27;;
34585;SDS011;20816;50.950;11.108;2023-05-07T07:00:14;15.23;;;6.53;;
34585;SDS011;20816;50.950;11.108;2023-05-07T07:02:41;10.87;;;5.57;;
34585;SDS011;20816;50.950;11.108;2023-05-07T07:05:07;13.13;;;6.10;;
34585;SDS011;20816;50.950;11.108;2023-05-07T07:07:34;16.30;;;7.00;;
34585;SDS011;20816;50.950;11.108;2023-05-07T07:10:01;8.87;;;5.20;;
34585;SDS011;20816;50.950;11.108;2023-05-07T07:12:30;10.33;;;5.83;;
34585;SDS011;20816;50.950;11.108;2023-05-07T07:15:00;9.93;;;5.20;;
34585;SDS011;20816;50.950;11.108;2023-05-07T07:17:27;8.77;;;5.33;;
34585;SDS011;20816;50.950;11.108;2023-05-07T07:19:53;13.97;;;5.43;;
34585;SDS011;20816;50.950;11.108;2023-05-07T07:22:20;11.50;;;5.47;;
34585;SDS011;20816;50.950;11.108;2023-05-07T07:24:46;9.70;;;5.40;;
34585;SDS011;20816;50.950;11.108;2023-05-07T07:27:13;9.33;;;5.53;;
34585;SDS011;20816;50.950;11.108;2023-05-07T07:29:40;9.83;;;4.83;;
34585;SDS011;20816;50.950;11.108;2023-05-07T07:32:07;9.33;;;5.47;;
34585;SDS011;20816;50.950;11.108;2023-05-07T07:34:34;8.57;;;4.23;;
34585;SDS011;20816;50.950;11.108;2023-05-07T07:37:01;7.57;;;5.17;;
34585;SDS011;20816;50.950;11.108;2023-05-07T07:39:31;7.90;;;3.77;;
34585;SDS011;20816;50.950;11.108;2023-05-07T07:41:59;9.77;;;4.33;;
34585;SDS011;20816;50.950;11.108;2023-05-07T07:44:27;9.53;;;4.83;;
34585;SDS011;20816;50.950;11.108;2023-05-07T07:46:54;8.93;;;4.07;;
34585;SDS011;20816;50.950;11.108;2023-05-07T07:49:21;8.27;;;4.67;;
34585;SDS011;20816;50.950;11.108;2023-05-07T07:51:48;9.17;;;5.30;;
34585;SDS011;20816;50.950;11.108;2023-05-07T07:54:15;6.30;;;4.00;;
34585;SDS011;20816;50.950;11.108;2023-05-07T07:56:42;8.87;;;4.87;;
34585;SDS011;20816;50.950;11.108;2023-05-07T07:59:08;9.20;;;5.10;;
34585;SDS011;20816;50.950;11.108;2023-05-07T08:01:35;9.03;;;5.10;;
34585;SDS011;20816;50.950;11.108;2023-05-07T08:04:02;8.03;;;4.53;;
34585;SDS011;20816;50.950;11.108;2023-05-07T08:06:29;8.73;;;4.07;;
34585;SDS011;20816;50.950;11.108;2023-05-07T08:08:56;10.47;;;5.83;;
34585;SDS011;20816;50.950;11.108;2023-05-07T08:11:23;10.30;;;5.17;;
34585;SDS011;20816;50.950;11.108;2023-05-07T08:13:55;7.37;;;4.43;;
34585;SDS011;20816;50.950;11.108;2023-05-07T08:16:22;10.53;;;5.33;;
34585;SDS011;20816;50.950;11.108;2023-05-07T08:18:49;8.77;;;5.10;;
34585;SDS011;20816;50.950;11.108;2023-05-07T08:21:16;8.60;;;4.53;;
34585;SDS011;20816;50.950;11.108;2023-05-07T08:23:43;8.67;;;4.83;;
34585;SDS011;20816;50.950;11.108;2023-05-07T08:26:12;6.20;;;3.80;;
34585;SDS011;20816;50.950;11.108;2023-05-07T08:28:41;9.73;;;4.47;;
34585;SDS011;20816;50.950;11.108;2023-05-07T08:31:08;8.97;;;5.17;;
34585;SDS011;20816;50.950;11.108;2023-05-07T08:33:35;10.07;;;4.40;;
34585;SDS011;20816;50.950;11.108;2023-05-07T08:36:02;6.87;;;4.33;;
34585;SDS011;20816;50.950;11.108;2023-05-07T08:38:28;8.33;;;5.07;;
34585;SDS011;20816;50.950;11.108;2023-05-07T08:40:55;11.67;;;6.57;;
34585;SDS011;20816;50.950;11.108;2023-05-07T08:43:22;10.03;;;5.23;;
34585;SDS011;20816;50.950;11.108;2023-05-07T08:45:53;9.90;;;5.53;;
34585;SDS011;20816;50.950;11.108;2023-05-07T08:48:22;9.80;;;5.37;;
34585;SDS011;20816;50.950;11.108;2023-05-07T08:50:52;9.87;;;5.03;;
34585;SDS011;20816;50.950;11.108;2023-05-07T08:53:19;9.27;;;5.27;;
34585;SDS011;20816;50.950;11.108;2023-05-07T08:55:46;11.63;;;5.40;;
34585;SDS011;20816;50.950;11.108;2023-05-07T08:58:14;10.53;;;4.17;;
34585;SDS011;20816;50.950;11.108;2023-05-07T09:00:41;11.60;;;5.67;;
34585;SDS011;20816;50.950;11.108;2023-05-07T09:03:08;9.97;;;5.50;;
34585;SDS011;20816;50.950;11.108;2023-05-07T09:05:38;7.97;;;5.47;;
34585;SDS011;20816;50.950;11.108;2023-05-07T09:08:06;11.60;;;5.90;;
34585;SDS011;20816;50.950;11.108;2023-05-07T09:10:34;11.87;;;5.67;;
34585;SDS011;20816;50.950;11.108;2023-05-07T09:13:02;13.87;;;6.90;;
34585;SDS011;20816;50.950;11.108;2023-05-07T09:15:30;11.77;;;4.93;;
34585;SDS011;20816;50.950;11.108;2023-05-07T09:18:00;11.23;;;6.23;;
34585;SDS011;20816;50.950;11.108;2023-05-07T09:20:30;10.87;;;5.90;;
34585;SDS011;20816;50.950;11.108;2023-05-07T09:22:56;11.73;;;6.13;;
34585;SDS011;20816;50.950;11.108;2023-05-07T09:25:30;9.50;;;6.13;;
34585;SDS011;20816;50.950;11.108;2023-05-07T09:27:58;8.13;;;5.07;;
34585;SDS011;20816;50.950;11.108;2023-05-07T09:30:27;11.60;;;5.67;;
34585;SDS011;20816;50.950;11.108;2023-05-07T09:32:56;12.57;;;6.47;;
34585;SDS011;20816;50.950;11.108;2023-05-07T09:35:24;13.07;;;6.60;;
34585;SDS011;20816;50.950;11.108;2023-05-07T09:37:53;11.13;;;5.90;;
34585;SDS011;20816;50.950;11.108;2023-05-07T09:42:48;10.20;;;5.83;;
34585;SDS011;20816;50.950;11.108;2023-05-07T09:45:20;11.70;;;6.47;;
34585;SDS011;20816;50.950;11.108;2023-05-07T09:47:53;11.50;;;5.97;;
34585;SDS011;20816;50.950;11.108;2023-05-07T09:50:28;8.83;;;5.07;;
34585;SDS011;20816;50.950;11.108;2023-05-07T09:52:58;9.40;;;5.10;;
34585;SDS011;20816;50.950;11.108;2023-05-07T09:55:25;9.43;;;5.90;;
34585;SDS011;20816;50.950;11.108;2023-05-07T09:57:53;10.93;;;6.47;;
34585;SDS011;20816;50.950;11.108;2023-05-07T10:00:22;10.07;;;5.30;;
34585;SDS011;20816;50.950;11.108;2023-05-07T10:02:49;10.00;;;5.40;;
34585;SDS011;20816;50.950;11.108;2023-05-07T10:05:18;11.57;;;5.17;;
34585;SDS011;20816;50.950;11.108;2023-05-07T10:07:48;8.77;;;4.90;;
34585;SDS011;20816;50.950;11.108;2023-05-07T10:10:15;8.10;;;5.33;;
34585;SDS011;20816;50.950;11.108;2023-05-07T10:12:44;9.40;;;5.37;;
34585;SDS011;20816;50.950;11.108;2023-05-07T10:15:11;10.00;;;5.80;;
34585;SDS011;20816;50.950;11.108;2023-05-07T10:17:39;9.83;;;6.20;;
34585;SDS011;20816;50.950;11.108;2023-05-07T10:20:07;9.73;;;5.30;;
34585;SDS011;20816;50.950;11.108;2023-05-07T10:22:38;8.87;;;5.80;;
34585;SDS011;20816;50.950;11.108;2023-05-07T10:25:20;9.67;;;5.43;;
34585;SDS011;20816;50.950;11.108;2023-05-07T10:27:49;9.77;;;6.10;;
34585;SDS011;20816;50.950;11.108;2023-05-07T10:32:56;9.17;;;5.33;;
34585;SDS011;20816;50.950;11.108;2023-05-07T10:35:36;8.33;;;4.90;;
34585;SDS011;20816;50.950;11.108;2023-05-07T10:38:05;9.27;;;5.87;;
34585;SDS011;20816;50.950;11.108;2023-05-07T10:40:32;11.63;;;5.60;;
34585;SDS011;20816;50.950;11.108;2023-05-07T10:43:03;8.43;;;5.23;;
34585;SDS011;20816;50.950;11.108;2023-05-07T10:45:35;10.63;;;5.27;;
34585;SDS011;20816;50.950;11.108;2023-05-07T10:48:05;10.00;;;5.70;;
34585;SDS011;20816;50.950;11.108;2023-05-07T10:51:17;6.27;;;4.20;;
34585;SDS011;20816;50.950;11.108;2023-05-07T10:53:48;10.37;;;3.93;;
34585;SDS011;20816;50.950;11.108;2023-05-07T10:58:47;9.37;;;5.43;;
34585;SDS011;20816;50.950;11.108;2023-05-07T11:01:14;9.13;;;5.40;;
34585;SDS011;20816;50.950;11.108;2023-05-07T11:06:41;6.57;;;4.67;;
34585;SDS011;20816;50.950;11.108;2023-05-07T11:09:08;7.90;;;4.70;;
34585;SDS011;20816;50.950;11.108;2023-05-07T11:11:47;13.27;;;5.73;;
34585;SDS011;20816;50.950;11.108;2023-05-07T11:17:09;6.83;;;4.30;;
34585;SDS011;20816;50.950;11.108;2023-05-07T11:19:53;7.10;;;4.80;;
34585;SDS011;20816;50.950;11.108;2023-05-07T11:22:39;7.97;;;5.27;;
34585;SDS011;20816;50.950;11.108;2023-05-07T11:25:06;7.83;;;5.17;;
34585;SDS011;20816;50.950;11.108;2023-05-07T11:27:33;11.37;;;5.33;;
34585;SDS011;20816;50.950;11.108;2023-05-07T11:30:00;12.17;;;5.80;;
34585;SDS011;20816;50.950;11.108;2023-05-07T11:32:28;8.73;;;5.60;;
34585;SDS011;20816;50.950;11.108;2023-05-07T11:34:57;9.93;;;5.17;;
34585;SDS011;20816;50.950;11.108;2023-05-07T11:37:26;7.93;;;5.33;;
34585;SDS011;20816;50.950;11.108;2023-05-07T11:40:05;8.67;;;6.03;;
34585;SDS011;20816;50.950;11.108;2023-05-07T11:42:34;10.53;;;5.77;;
34585;SDS011;20816;50.950;11.108;2023-05-07T11:45:04;9.07;;;5.97;;
34585;SDS011;20816;50.950;11.108;2023-05-07T11:47:33;9.57;;;5.60;;
34585;SDS011;20816;50.950;11.108;2023-05-07T11:50:04;8.40;;;5.47;;
34585;SDS011;20816;50.950;11.108;2023-05-07T11:52:34;11.73;;;4.90;;
34585;SDS011;20816;50.950;11.108;2023-05-07T11:55:01;9.13;;;5.53;;
34585;SDS011;20816;50.950;11.108;2023-05-07T11:57:30;8.37;;;5.10;;
34585;SDS011;20816;50.950;11.108;2023-05-07T11:59:57;9.57;;;5.13;;
34585;SDS011;20816;50.950;11.108;2023-05-07T12:02:25;8.50;;;5.03;;
34585;SDS011;20816;50.950;11.108;2023-05-07T12:04:52;10.67;;;4.53;;
34585;SDS011;20816;50.950;11.108;2023-05-07T12:07:20;5.83;;;4.33;;
34585;SDS011;20816;50.950;11.108;2023-05-07T12:09:47;8.43;;;5.47;;
34585;SDS011;20816;50.950;11.108;2023-05-07T12:12:14;7.00;;;4.67;;
34585;SDS011;20816;50.950;11.108;2023-05-07T12:14:42;9.67;;;4.60;;
34585;SDS011;20816;50.950;11.108;2023-05-07T12:17:10;7.27;;;3.90;;
34585;SDS011;20816;50.950;11.108;2023-05-07T12:19:38;6.60;;;3.87;;
34585;SDS011;20816;50.950;11.108;2023-05-07T12:22:09;6.43;;;4.07;;
34585;SDS011;20816;50.950;11.108;2023-05-07T12:24:50;7.07;;;4.00;;
34585;SDS011;20816;50.950;11.108;2023-05-07T12:27:23;9.30;;;4.77;;
34585;SDS011;20816;50.950;11.108;2023-05-07T12:29:50;6.00;;;4.37;;
34585;SDS011;20816;50.950;11.108;2023-05-07T12:32:18;10.30;;;5.57;;
34585;SDS011;20816;50.950;11.108;2023-05-07T12:34:46;8.60;;;5.33;;
34585;SDS011;20816;50.950;11.108;2023-05-07T12:37:15;6.10;;;4.17;;
34585;SDS011;20816;50.950;11.108;2023-05-07T12:39:49;6.83;;;4.40;;
34585;SDS011;20816;50.950;11.108;2023-05-07T12:42:32;6.37;;;4.00;;
34585;SDS011;20816;50.950;11.108;2023-05-07T12:45:15;6.63;;;3.90;;
34585;SDS011;20816;50.950;11.108;2023-05-07T12:47:43;7.30;;;4.17;;
34585;SDS011;20816;50.950;11.108;2023-05-07T12:50:14;6.97;;;4.13;;
34585;SDS011;20816;50.950;11.108;2023-05-07T12:52:45;9.83;;;4.60;;
34585;SDS011;20816;50.950;11.108;2023-05-07T12:55:14;9.47;;;4.27;;
34585;SDS011;20816;50.950;11.108;2023-05-07T12:57:43;7.23;;;3.73;;
34585;SDS011;20816;50.950;11.108;2023-05-07T13:00:17;5.40;;;3.50;;
34585;SDS011;20816;50.950;11.108;2023-05-07T13:02:58;6.17;;;4.07;;
34585;SDS011;20816;50.950;11.108;2023-05-07T13:05:25;6.00;;;3.80;;
34585;SDS011;20816;50.950;11.108;2023-05-07T13:07:55;7.23;;;4.10;;
34585;SDS011;20816;50.950;11.108;2023-05-07T13:10:22;6.80;;;4.13;;
34585;SDS011;20816;50.950;11.108;2023-05-07T13:12:50;4.67;;;3.63;;
34585;SDS011;20816;50.950;11.108;2023-05-07T13:15:17;7.70;;;4.13;;
34585;SDS011;20816;50.950;11.108;2023-05-07T13:17:44;5.07;;;3.60;;
34585;SDS011;20816;50.950;11.108;2023-05-07T13:20:11;7.33;;;4.50;;
34585;SDS011;20816;50.950;11.108;2023-05-07T13:22:39;6.90;;;4.03;;
34585;SDS011;20816;50.950;11.108;2023-05-07T13:25:06;4.47;;;3.33;;
34585;SDS011;20816;50.950;11.108;2023-05-07T13:27:33;9.60;;;4.17;;
34585;SDS011;20816;50.950;11.108;2023-05-07T13:30:03;4.30;;;3.20;;
34585;SDS011;20816;50.950;11.108;2023-05-07T13:32:31;5.30;;;3.70;;
34585;SDS011;20816;50.950;11.108;2023-05-07T13:34:58;6.27;;;4.03;;
34585;SDS011;20816;50.950;11.108;2023-05-07T13:37:25;4.47;;;3.50;;
34585;SDS011;20816;50.950;11.108;2023-05-07T13:39:52;4.97;;;4.00;;
34585;SDS011;20816;50.950;11.108;2023-05-07T13:42:19;6.73;;;3.67;;
34585;SDS011;20816;50.950;11.108;2023-05-07T13:44:46;6.80;;;3.57;;
34585;SDS011;20816;50.950;11.108;2023-05-07T13:47:12;5.28;;;3.80;;
34585;SDS011;20816;50.950;11.108;2023-05-07T13:49:39;4.90;;;3.30;;
34585;SDS011;20816;50.950;11.108;2023-05-07T13:52:09;4.23;;;3.17;;
34585;SDS011;20816;50.950;11.108;2023-05-07T13:54:35;4.33;;;3.40;;
34585;SDS011;20816;50.950;11.108;2023-05-07T13:57:02;4.53;;;3.03;;
34585;SDS011;20816;50.950;11.108;2023-05-07T13:59:29;5.63;;;3.77;;
34585;SDS011;20816;50.950;11.108;2023-05-07T14:01:55;6.33;;;3.97;;
34585;SDS011;20816;50.950;11.108;2023-05-07T14:04:22;5.10;;;3.37;;
34585;SDS011;20816;50.950;11.108;2023-05-07T14:06:49;5.77;;;3.60;;
34585;SDS011;20816;50.950;11.108;2023-05-07T14:09:16;5.13;;;4.20;;
34585;SDS011;20816;50.950;11.108;2023-05-07T14:11:42;4.07;;;2.87;;
34585;SDS011;20816;50.950;11.108;2023-05-07T14:14:09;6.77;;;3.67;;
34585;SDS011;20816;50.950;11.108;2023-05-07T14:16:37;5.40;;;3.80;;
34585;SDS011;20816;50.950;11.108;2023-05-07T14:19:04;5.25;;;3.70;;
34585;SDS011;20816;50.950;11.108;2023-05-07T14:21:30;5.15;;;3.97;;
34585;SDS011;20816;50.950;11.108;2023-05-07T14:23:57;4.30;;;2.90;;
34585;SDS011;20816;50.950;11.108;2023-05-07T14:26:24;5.47;;;3.77;;
34585;SDS011;20816;50.950;11.108;2023-05-07T14:28:53;5.53;;;4.37;;
34585;SDS011;20816;50.950;11.108;2023-05-07T14:31:21;5.60;;;3.67;;
34585;SDS011;20816;50.950;11.108;2023-05-07T14:33:48;5.30;;;3.90;;
34585;SDS011;20816;50.950;11.108;2023-05-07T14:36:17;4.83;;;2.97;;
34585;SDS011;20816;50.950;11.108;2023-05-07T14:38:46;5.07;;;3.00;;
34585;SDS011;20816;50.950;11.108;2023-05-07T14:41:13;5.67;;;3.60;;